createdAt,value
2019-03-29T00:00:31.421Z,7.36
2019-03-29T00:03:00.806Z,7.51
2019-03-29T00:05:29.512Z,7.40
2019-03-29T00:07:58.127Z,7.40
2019-03-29T00:10:26.800Z,7.39
2019-03-29T00:12:55.266Z,7.42
2019-03-29T00:15:23.801Z,7.53
2019-03-29T00:17:52.468Z,7.42
2019-03-29T00:20:21.076Z,7.45
2019-03-29T00:22:49.590Z,7.28
2019-03-29T00:25:18.069Z,6.95
2019-03-29T00:27:46.623Z,6.61
2019-03-29T00:30:15.332Z,6.45
2019-03-29T00:32:43.911Z,6.51
2019-03-29T00:35:12.805Z,6.88
2019-03-29T00:37:52.882Z,7.21
2019-03-29T00:40:11.673Z,7.29
2019-03-29T00:42:40.121Z,7.17
2019-03-29T00:45:08.949Z,7.30
2019-03-29T00:47:37.518Z,7.37
2019-03-29T00:50:07.330Z,7.38
2019-03-29T00:52:35.917Z,7.25
2019-03-29T00:55:05.287Z,7.14
2019-03-29T00:57:33.839Z,7.00
2019-03-29T01:00:02.411Z,6.68
2019-03-29T01:02:31.000Z,6.66
2019-03-29T01:04:59.587Z,6.40
2019-03-29T01:07:28.194Z,6.30
2019-03-29T01:09:56.957Z,6.37
2019-03-29T01:12:26.032Z,6.57
2019-03-29T01:14:54.629Z,6.93
2019-03-29T01:17:23.102Z,7.08
2019-03-29T01:19:51.627Z,7.08
2019-03-29T01:22:20.176Z,7.21
2019-03-29T01:24:48.696Z,7.31
2019-03-29T01:27:17.253Z,7.32
2019-03-29T01:29:45.783Z,7.07
2019-03-29T01:32:14.227Z,7.06
2019-03-29T01:34:43.146Z,6.80
2019-03-29T01:37:11.947Z,6.68
2019-03-29T01:39:40.531Z,6.55
2019-03-29T01:42:09.517Z,6.32
2019-03-29T01:44:38.503Z,6.37
2019-03-29T01:47:07.052Z,6.67
2019-03-29T01:49:35.921Z,6.88
2019-03-29T01:52:04.494Z,6.88
2019-03-29T01:54:33.107Z,6.76
2019-03-29T01:57:01.688Z,6.74
2019-03-29T01:59:30.304Z,6.71
2019-03-29T02:01:58.812Z,6.66
2019-03-29T02:04:27.459Z,6.56
2019-03-29T02:06:56.024Z,6.52
2019-03-29T02:09:24.594Z,6.52
2019-03-29T02:11:53.421Z,6.17
2019-03-29T02:14:21.953Z,5.90
2019-03-29T02:16:50.564Z,5.74
2019-03-29T02:19:19.279Z,5.86
2019-03-29T02:21:47.772Z,6.05
2019-03-29T02:24:16.377Z,6.19
2019-03-29T02:26:44.905Z,6.06
2019-03-29T02:29:13.433Z,6.13
2019-03-29T02:31:42.755Z,6.42
2019-03-29T02:34:11.412Z,6.43
2019-03-29T02:36:39.879Z,6.46
2019-03-29T02:39:08.467Z,6.50
2019-03-29T02:41:37.105Z,6.32
2019-03-29T02:44:06.573Z,6.46
2019-03-29T02:46:36.133Z,6.20
2019-03-29T02:49:04.721Z,5.70
2019-03-29T02:51:33.334Z,5.29
2019-03-29T02:54:01.920Z,5.38
2019-03-29T02:56:30.538Z,5.62
2019-03-29T02:58:59.118Z,5.89
2019-03-29T03:01:27.640Z,6.11
2019-03-29T03:03:56.240Z,6.41
2019-03-29T03:06:24.869Z,6.47
2019-03-29T03:08:53.363Z,6.50
2019-03-29T03:11:22.036Z,6.45
2019-03-29T03:13:50.770Z,6.51
2019-03-29T03:16:19.558Z,6.44
2019-03-29T03:18:49.120Z,6.42
2019-03-29T03:21:17.707Z,6.15
2019-03-29T03:23:46.227Z,5.85
2019-03-29T03:26:14.855Z,5.45
2019-03-29T03:28:43.346Z,5.23
2019-03-29T03:31:12.223Z,5.37
2019-03-29T03:33:40.826Z,5.57
2019-03-29T03:36:09.394Z,5.80
2019-03-29T03:38:37.893Z,5.97
2019-03-29T03:41:06.916Z,6.24
2019-03-29T03:43:35.463Z,6.30
2019-03-29T03:46:04.088Z,6.37
2019-03-29T03:48:32.607Z,6.32
2019-03-29T03:51:01.526Z,6.28
2019-03-29T03:53:30.719Z,6.08
2019-03-29T03:56:00.644Z,6.24
2019-03-29T03:58:29.551Z,5.92
2019-03-29T04:00:58.869Z,5.46
2019-03-29T04:03:27.677Z,5.00
2019-03-29T04:05:56.396Z,4.97
2019-03-29T04:08:25.494Z,5.24
2019-03-29T04:10:54.112Z,5.54
2019-03-29T04:13:22.704Z,5.74
2019-03-29T04:15:51.332Z,5.88
2019-03-29T04:18:19.906Z,6.03
2019-03-29T04:20:48.515Z,6.08
2019-03-29T04:23:19.398Z,6.20
2019-03-29T04:25:47.972Z,6.03
2019-03-29T04:28:16.535Z,6.03
2019-03-29T04:30:45.038Z,5.95
2019-03-29T04:33:13.532Z,5.98
2019-03-29T04:35:42.106Z,5.53
2019-03-29T04:38:11.738Z,5.07
2019-03-29T04:40:40.255Z,4.73
2019-03-29T04:43:08.827Z,4.91
2019-03-29T04:45:37.451Z,5.35
2019-03-29T04:48:06.559Z,5.44
2019-03-29T04:50:35.251Z,5.69
2019-03-29T04:53:04.246Z,5.88
2019-03-29T04:55:32.902Z,5.94
2019-03-29T04:58:01.339Z,5.83
2019-03-29T05:00:29.965Z,5.83
2019-03-29T05:02:58.564Z,5.83
2019-03-29T05:05:27.136Z,5.64
2019-03-29T05:07:55.830Z,5.84
2019-03-29T05:10:24.422Z,5.61
2019-03-29T05:12:53.272Z,5.30
2019-03-29T05:15:21.822Z,4.81
2019-03-29T05:17:50.417Z,4.89
2019-03-29T05:20:19.178Z,5.19
2019-03-29T05:22:47.735Z,5.36
2019-03-29T05:25:16.181Z,5.35
2019-03-29T05:27:44.825Z,5.41
2019-03-29T05:30:13.362Z,5.56
2019-03-29T05:32:42.667Z,5.66
2019-03-29T05:35:11.264Z,5.69
2019-03-29T05:37:39.788Z,5.74
2019-03-29T05:40:08.511Z,5.68
2019-03-29T05:42:37.076Z,5.57
2019-03-29T05:45:07.471Z,5.56
2019-03-29T05:47:35.980Z,5.18
2019-03-29T05:50:06.227Z,4.78
2019-03-29T05:52:34.849Z,4.68
2019-03-29T05:55:04.017Z,4.97
2019-03-29T05:57:32.650Z,5.36
2019-03-29T06:00:01.169Z,5.57
2019-03-29T06:02:29.700Z,5.66
2019-03-29T06:04:58.295Z,5.75
2019-03-29T06:07:26.915Z,5.75
2019-03-29T06:09:55.471Z,5.99
2019-03-29T06:12:24.005Z,6.26
2019-03-29T06:14:52.616Z,6.27
2019-03-29T06:17:21.257Z,6.25
2019-03-29T06:19:49.766Z,6.49
2019-03-29T06:22:18.301Z,6.32
2019-03-29T06:24:46.938Z,5.91
2019-03-29T06:27:15.516Z,5.50
2019-03-29T06:29:44.054Z,5.61
2019-03-29T06:32:13.654Z,5.93
2019-03-29T06:34:42.326Z,6.43
2019-03-29T06:37:11.813Z,6.70
2019-03-29T06:39:40.849Z,6.93
2019-03-29T06:42:09.281Z,7.14
2019-03-29T06:44:37.880Z,7.33
2019-03-29T06:47:06.716Z,7.56
2019-03-29T06:49:35.299Z,7.94
2019-03-29T06:52:03.931Z,9.81
2019-03-29T06:54:33.221Z,12.11
2019-03-29T06:57:01.961Z,14.30
2019-03-29T06:59:30.560Z,15.82
2019-03-29T07:01:59.077Z,14.68
2019-03-29T07:04:27.706Z,15.09
2019-03-29T07:06:56.263Z,15.44
2019-03-29T07:09:24.815Z,14.82
2019-03-29T07:11:53.481Z,14.56
2019-03-29T07:14:22.138Z,13.55
2019-03-29T07:16:50.647Z,14.08
2019-03-29T07:19:19.215Z,14.18
2019-03-29T07:21:47.946Z,14.27
2019-03-29T07:24:16.555Z,14.15
2019-03-29T07:26:45.072Z,13.66
2019-03-29T07:29:14.617Z,13.44
2019-03-29T07:31:43.231Z,13.85
2019-03-29T07:34:11.795Z,13.91
2019-03-29T07:36:40.467Z,13.71
2019-03-29T07:39:09.078Z,13.48
2019-03-29T07:41:37.667Z,13.45
2019-03-29T07:44:06.279Z,13.66
2019-03-29T07:46:34.899Z,13.86
2019-03-29T07:49:03.489Z,14.20
2019-03-29T07:51:32.038Z,14.32
2019-03-29T07:54:00.697Z,14.78
2019-03-29T07:56:29.301Z,15.06
2019-03-29T07:58:57.858Z,15.19
2019-03-29T08:01:26.441Z,15.32
2019-03-29T08:03:54.943Z,15.57
2019-03-29T08:06:23.578Z,15.69
2019-03-29T08:08:52.092Z,16.16
2019-03-29T08:11:26.351Z,15.87
2019-03-29T08:13:51.051Z,15.11
2019-03-29T08:16:19.666Z,14.90
2019-03-29T08:18:48.627Z,14.71
2019-03-29T08:21:17.152Z,14.81
2019-03-29T08:23:45.839Z,15.28
2019-03-29T08:26:14.496Z,15.23
2019-03-29T08:28:42.977Z,15.22
2019-03-29T08:31:11.671Z,15.59
2019-03-29T08:33:40.135Z,15.90
2019-03-29T08:36:08.611Z,16.14
2019-03-29T08:38:37.212Z,16.57
2019-03-29T08:41:05.854Z,16.86
2019-03-29T08:43:34.454Z,16.72
2019-03-29T08:46:03.079Z,16.61
2019-03-29T08:48:31.755Z,16.42
2019-03-29T08:51:00.384Z,16.34
2019-03-29T08:53:29.020Z,16.37
2019-03-29T08:55:57.554Z,16.47
2019-03-29T08:58:26.021Z,16.43
2019-03-29T09:00:54.677Z,16.39
2019-03-29T09:03:24.034Z,16.35
2019-03-29T09:05:52.708Z,16.36
2019-03-29T09:08:21.293Z,16.34
2019-03-29T09:10:49.918Z,16.67
2019-03-29T09:13:18.494Z,17.15
2019-03-29T09:15:47.142Z,17.51
2019-03-29T09:18:15.730Z,17.51
2019-03-29T09:20:44.216Z,17.55
2019-03-29T09:23:12.918Z,17.40
2019-03-29T09:25:41.537Z,17.69
2019-03-29T09:28:10.127Z,18.23
2019-03-29T09:30:39.008Z,18.15
2019-03-29T09:33:07.592Z,17.67
2019-03-29T09:35:36.209Z,17.62
2019-03-29T09:38:05.084Z,17.66
2019-03-29T09:40:33.677Z,17.71
2019-03-29T09:43:09.603Z,17.55
2019-03-29T09:45:32.875Z,17.73
2019-03-29T09:48:01.415Z,17.75
2019-03-29T09:50:30.017Z,17.81
2019-03-29T09:53:01.204Z,18.00
2019-03-29T09:55:28.938Z,18.03
2019-03-29T09:57:57.492Z,18.03
2019-03-29T10:00:26.008Z,18.30
2019-03-29T10:02:54.627Z,18.43
2019-03-29T10:05:23.302Z,18.49
2019-03-29T10:07:51.941Z,18.30
2019-03-29T10:10:20.540Z,18.23
2019-03-29T10:12:49.094Z,18.49
2019-03-29T10:15:17.713Z,18.91
2019-03-29T10:17:46.360Z,18.83
2019-03-29T10:20:15.068Z,18.78
2019-03-29T10:22:43.730Z,18.92
2019-03-29T10:25:19.523Z,18.75
2019-03-29T10:27:42.589Z,18.63
2019-03-29T10:30:11.817Z,18.78
2019-03-29T10:32:40.455Z,19.27
2019-03-29T10:35:09.798Z,19.63
2019-03-29T10:37:38.628Z,19.81
2019-03-29T10:40:07.640Z,19.56
2019-03-29T10:42:39.871Z,19.52
2019-03-29T10:45:06.662Z,19.47
2019-03-29T10:47:43.527Z,19.40
2019-03-29T10:50:07.060Z,19.28
2019-03-29T10:52:35.751Z,19.00
2019-03-29T10:55:04.996Z,18.86
2019-03-29T10:57:33.616Z,18.89
2019-03-29T11:00:02.384Z,19.11
2019-03-29T11:02:30.974Z,19.44
2019-03-29T11:04:59.464Z,19.58
2019-03-29T11:07:28.039Z,19.49
2019-03-29T11:09:56.802Z,19.27
2019-03-29T11:12:25.410Z,19.73
2019-03-29T11:14:53.919Z,19.60
2019-03-29T11:17:22.466Z,19.40
2019-03-29T11:19:51.083Z,19.47
2019-03-29T11:22:19.709Z,19.66
2019-03-29T11:24:49.180Z,19.79
2019-03-29T11:27:17.802Z,19.66
2019-03-29T11:29:46.473Z,19.52
2019-03-29T11:32:15.065Z,19.63
2019-03-29T11:34:43.643Z,19.72
2019-03-29T11:37:12.209Z,19.97
2019-03-29T11:39:40.817Z,20.25
2019-03-29T11:42:09.450Z,20.44
2019-03-29T11:44:37.983Z,20.01
2019-03-29T11:47:07.034Z,20.10
2019-03-29T11:49:35.553Z,20.41
2019-03-29T11:52:04.424Z,20.38
2019-03-29T11:54:32.933Z,20.25
2019-03-29T11:57:01.620Z,20.14
2019-03-29T11:59:30.201Z,20.25
2019-03-29T12:01:58.756Z,20.49
2019-03-29T12:04:27.411Z,20.74
2019-03-29T12:06:56.180Z,20.64
2019-03-29T12:09:24.818Z,20.64
2019-03-29T12:11:53.445Z,20.67
2019-03-29T12:14:22.026Z,20.64
2019-03-29T12:16:50.668Z,20.59
2019-03-29T12:19:20.232Z,20.58
2019-03-29T12:21:48.741Z,20.48
2019-03-29T12:24:17.408Z,20.41
2019-03-29T12:26:45.857Z,20.43
2019-03-29T12:29:14.322Z,20.70
2019-03-29T12:31:42.870Z,20.74
2019-03-29T12:34:11.383Z,20.65
2019-03-29T12:36:39.959Z,20.43
2019-03-29T12:39:08.699Z,20.16
2019-03-29T12:41:38.773Z,20.14
2019-03-29T12:44:07.304Z,19.98
2019-03-29T12:46:36.022Z,19.94
2019-03-29T12:49:04.677Z,19.93
2019-03-29T12:51:33.244Z,20.12
2019-03-29T12:54:01.702Z,20.13
2019-03-29T12:56:30.550Z,20.12
2019-03-29T12:58:59.064Z,19.93
2019-03-29T13:01:38.641Z,19.84
2019-03-29T13:03:57.938Z,20.03
2019-03-29T13:06:26.574Z,20.01
2019-03-29T13:08:55.022Z,19.98
2019-03-29T13:11:23.664Z,20.04
2019-03-29T13:13:52.206Z,20.16
2019-03-29T13:16:21.366Z,20.27
2019-03-29T13:18:49.920Z,20.26
2019-03-29T13:21:18.532Z,20.10
2019-03-29T13:23:47.144Z,20.06
2019-03-29T13:26:15.795Z,19.82
2019-03-29T13:28:44.483Z,20.02
2019-03-29T13:31:13.179Z,20.18
2019-03-29T13:33:41.689Z,20.20
2019-03-29T13:36:10.312Z,20.33
2019-03-29T13:38:38.889Z,20.34
2019-03-29T13:41:07.528Z,20.39
2019-03-29T13:43:36.109Z,20.33
2019-03-29T13:46:04.697Z,20.29
2019-03-29T13:48:33.224Z,20.38
2019-03-29T13:51:01.960Z,20.46
2019-03-29T13:53:30.462Z,20.07
2019-03-29T13:55:59.065Z,19.99
2019-03-29T13:58:27.519Z,19.99
2019-03-29T14:00:56.003Z,20.12
2019-03-29T14:03:24.521Z,20.23
2019-03-29T14:05:53.179Z,20.34
2019-03-29T14:08:22.222Z,20.35
2019-03-29T14:10:50.848Z,20.29
2019-03-29T14:13:19.822Z,20.29
2019-03-29T14:15:48.479Z,20.20
2019-03-29T14:18:17.130Z,20.34
2019-03-29T14:20:45.887Z,20.55
2019-03-29T14:23:14.586Z,20.59
2019-03-29T14:25:43.247Z,20.59
2019-03-29T14:28:11.734Z,20.53
2019-03-29T14:30:40.393Z,20.61
2019-03-29T14:33:09.140Z,20.72
2019-03-29T14:35:37.674Z,20.69
2019-03-29T14:38:06.514Z,20.70
2019-03-29T14:40:35.179Z,20.55
2019-03-29T14:43:03.813Z,20.60
2019-03-29T14:45:32.484Z,20.47
2019-03-29T14:48:01.069Z,20.31
2019-03-29T14:50:29.697Z,20.41
2019-03-29T14:52:58.314Z,20.39
2019-03-29T14:55:26.899Z,20.39
2019-03-29T14:57:55.483Z,20.53
2019-03-29T15:00:38.302Z,20.37
2019-03-29T15:03:06.988Z,20.36
2019-03-29T15:05:35.616Z,20.28
2019-03-29T15:08:04.234Z,20.33
2019-03-29T15:10:32.843Z,20.36
2019-03-29T15:13:01.455Z,20.48
2019-03-29T15:15:30.102Z,20.38
2019-03-29T15:17:58.573Z,20.30
2019-03-29T15:20:27.194Z,20.32
2019-03-29T15:22:55.711Z,20.39
2019-03-29T15:25:24.284Z,20.30
2019-03-29T15:27:53.923Z,20.38
2019-03-29T15:30:22.515Z,20.47
2019-03-29T15:32:51.131Z,20.50
2019-03-29T15:35:21.035Z,20.65
2019-03-29T15:37:49.792Z,20.66
2019-03-29T15:40:18.381Z,20.59
2019-03-29T15:42:47.015Z,20.58
2019-03-29T15:45:20.739Z,20.47
2019-03-29T15:47:46.036Z,20.27
2019-03-29T15:50:14.692Z,20.39
2019-03-29T15:52:43.274Z,20.44
2019-03-29T15:55:12.017Z,20.44
2019-03-29T15:57:40.613Z,20.38
2019-03-29T16:00:10.701Z,20.36
2019-03-29T16:02:39.288Z,20.08
2019-03-29T16:05:07.870Z,19.83
2019-03-29T16:07:36.514Z,19.74
2019-03-29T16:10:06.106Z,19.76
2019-03-29T16:12:34.735Z,19.77
2019-03-29T16:15:03.300Z,19.74
2019-03-29T16:17:31.847Z,19.83
2019-03-29T16:20:00.487Z,19.79
2019-03-29T16:22:29.028Z,19.56
2019-03-29T16:24:57.653Z,19.45
2019-03-29T16:27:26.247Z,19.20
2019-03-29T16:29:54.883Z,19.15
2019-03-29T16:32:23.491Z,19.20
2019-03-29T16:34:51.890Z,19.25
2019-03-29T16:37:20.527Z,19.12
2019-03-29T16:39:49.065Z,19.07
2019-03-29T16:42:17.684Z,19.24
2019-03-29T16:44:46.227Z,19.26
2019-03-29T16:47:14.767Z,19.16
2019-03-29T16:49:43.314Z,19.24
2019-03-29T16:52:11.924Z,19.06
2019-03-29T16:54:40.492Z,18.83
2019-03-29T16:57:09.031Z,18.85
2019-03-29T16:59:37.476Z,18.79
2019-03-29T17:02:06.335Z,18.67
2019-03-29T17:04:34.831Z,18.68
2019-03-29T17:07:03.518Z,18.67
2019-03-29T17:09:32.044Z,18.47
2019-03-29T17:12:00.559Z,18.41
2019-03-29T17:14:29.159Z,18.36
2019-03-29T17:16:57.738Z,18.45
2019-03-29T17:19:26.365Z,18.40
2019-03-29T17:21:55.704Z,18.26
2019-03-29T17:24:24.264Z,18.26
2019-03-29T17:26:52.888Z,18.19
2019-03-29T17:29:21.414Z,18.08
2019-03-29T17:31:50.177Z,17.85
2019-03-29T17:34:18.696Z,17.67
2019-03-29T17:36:47.363Z,17.54
2019-03-29T17:39:16.260Z,17.51
2019-03-29T17:41:44.812Z,17.52
2019-03-29T17:44:13.438Z,17.60
2019-03-29T17:46:42.039Z,17.36
2019-03-29T17:49:10.808Z,16.94
2019-03-29T17:51:39.514Z,16.58
2019-03-29T17:54:08.203Z,16.35
2019-03-29T17:56:36.741Z,16.13
2019-03-29T17:59:05.359Z,15.83
2019-03-29T18:01:33.866Z,15.61
2019-03-29T18:04:02.477Z,15.43
2019-03-29T18:06:30.976Z,15.43
2019-03-29T18:08:59.808Z,15.29
2019-03-29T18:11:28.401Z,15.02
2019-03-29T18:13:56.935Z,14.91
2019-03-29T18:16:30.818Z,14.76
2019-03-29T18:18:56.736Z,14.62
2019-03-29T18:21:25.313Z,14.49
2019-03-29T18:23:53.923Z,14.40
2019-03-29T18:26:22.634Z,14.34
2019-03-29T18:28:51.259Z,14.25
2019-03-29T18:31:20.140Z,14.15
2019-03-29T18:33:48.943Z,14.26
2019-03-29T18:36:17.788Z,14.20
2019-03-29T18:38:48.884Z,13.98
2019-03-29T18:41:17.466Z,13.72
2019-03-29T18:43:46.093Z,13.57
2019-03-29T18:46:14.683Z,13.58
2019-03-29T18:48:43.197Z,13.67
2019-03-29T18:51:11.804Z,13.60
2019-03-29T18:53:40.236Z,13.55
2019-03-29T18:56:08.873Z,13.60
2019-03-29T18:58:37.375Z,13.82
2019-03-29T19:01:05.924Z,14.00
2019-03-29T19:03:34.539Z,14.08
2019-03-29T19:06:03.232Z,14.07
2019-03-29T19:08:32.003Z,13.86
2019-03-29T19:11:00.582Z,13.54
2019-03-29T19:13:29.254Z,13.25
2019-03-29T19:15:59.202Z,13.09
2019-03-29T19:18:28.220Z,12.97
2019-03-29T19:20:57.707Z,12.78
2019-03-29T19:23:26.289Z,12.62
2019-03-29T19:25:54.927Z,12.58
2019-03-29T19:28:23.476Z,12.64
2019-03-29T19:30:52.094Z,12.72
2019-03-29T19:33:20.772Z,12.73
2019-03-29T19:35:49.373Z,12.72
2019-03-29T19:38:17.973Z,12.88
2019-03-29T19:40:46.621Z,13.01
2019-03-29T19:43:15.202Z,12.99
2019-03-29T19:45:44.640Z,13.09
2019-03-29T19:48:13.299Z,13.04
2019-03-29T19:50:41.881Z,12.79
2019-03-29T19:53:10.476Z,12.55
2019-03-29T19:55:39.048Z,12.36
2019-03-29T19:58:07.787Z,12.08
2019-03-29T20:00:38.145Z,11.93
2019-03-29T20:03:06.841Z,11.83
2019-03-29T20:05:35.453Z,11.89
2019-03-29T20:08:04.065Z,11.88
2019-03-29T20:10:32.704Z,11.75
2019-03-29T20:13:01.389Z,11.63
2019-03-29T20:15:30.105Z,11.78
2019-03-29T20:17:58.753Z,11.89
2019-03-29T20:20:28.193Z,12.13
2019-03-29T20:22:57.779Z,12.21
2019-03-29T20:25:26.624Z,12.00
2019-03-29T20:27:58.123Z,11.83
2019-03-29T20:30:26.129Z,11.66
2019-03-29T20:32:54.663Z,11.49
2019-03-29T20:35:23.265Z,11.36
2019-03-29T20:37:51.959Z,11.32
2019-03-29T20:40:20.549Z,11.30
2019-03-29T20:42:49.245Z,11.30
2019-03-29T20:45:17.927Z,11.29
2019-03-29T20:47:46.601Z,11.28
2019-03-29T20:50:15.708Z,11.49
2019-03-29T20:52:44.471Z,11.61
2019-03-29T20:55:13.171Z,11.67
2019-03-29T20:57:41.860Z,11.67
2019-03-29T21:00:13.629Z,11.43
2019-03-29T21:02:42.272Z,11.21
2019-03-29T21:05:10.976Z,10.93
2019-03-29T21:07:39.548Z,10.82
2019-03-29T21:10:08.578Z,10.79
2019-03-29T21:12:37.164Z,10.81
2019-03-29T21:15:07.516Z,10.77
2019-03-29T21:17:36.667Z,10.78
2019-03-29T21:20:11.061Z,10.77
2019-03-29T21:22:39.648Z,10.91
2019-03-29T21:25:08.498Z,11.15
2019-03-29T21:27:37.487Z,11.27
2019-03-29T21:30:11.105Z,11.25
2019-03-29T21:32:39.701Z,11.38
2019-03-29T21:35:08.700Z,11.17
2019-03-29T21:37:37.277Z,10.86
2019-03-29T21:40:07.967Z,10.57
2019-03-29T21:42:36.966Z,10.43
2019-03-29T21:45:07.692Z,10.29
2019-03-29T21:47:36.299Z,10.18
2019-03-29T21:50:07.976Z,10.19
2019-03-29T21:52:36.697Z,10.26
2019-03-29T21:55:06.326Z,10.40
2019-03-29T21:57:34.893Z,10.59
2019-03-29T22:00:05.014Z,10.83
2019-03-29T22:02:33.658Z,10.90
2019-03-29T22:05:02.304Z,10.94
2019-03-29T22:07:31.028Z,11.08
2019-03-29T22:09:59.650Z,10.80
2019-03-29T22:12:28.291Z,10.50
2019-03-29T22:14:56.861Z,10.23
2019-03-29T22:17:25.927Z,10.03
2019-03-29T22:19:54.431Z,9.85
2019-03-29T22:22:22.977Z,9.65
2019-03-29T22:24:51.728Z,9.54
2019-03-29T22:27:20.267Z,9.63
2019-03-29T22:29:48.784Z,9.93
2019-03-29T22:32:17.312Z,10.24
2019-03-29T22:34:45.949Z,10.44
2019-03-29T22:37:14.532Z,10.48
2019-03-29T22:39:43.080Z,10.45
2019-03-29T22:42:11.645Z,10.58
2019-03-29T22:44:40.229Z,10.55
2019-03-29T22:47:08.939Z,10.26
2019-03-29T22:49:37.523Z,9.86
2019-03-29T22:52:06.249Z,9.51
2019-03-29T22:54:34.634Z,9.21
2019-03-29T22:57:03.199Z,9.21
2019-03-29T22:59:31.779Z,9.31
2019-03-29T23:02:00.371Z,9.32
2019-03-29T23:04:28.944Z,9.51
2019-03-29T23:06:57.516Z,9.83
2019-03-29T23:09:26.095Z,10.02
2019-03-29T23:11:54.619Z,10.16
2019-03-29T23:14:23.247Z,10.17
2019-03-29T23:16:51.796Z,10.24
2019-03-29T23:19:20.428Z,10.23
2019-03-29T23:21:48.898Z,9.83
2019-03-29T23:24:17.396Z,9.46
2019-03-29T23:26:45.964Z,9.22
2019-03-29T23:29:14.535Z,8.89
2019-03-29T23:31:43.032Z,8.70
2019-03-29T23:34:11.628Z,8.81
2019-03-29T23:36:40.137Z,8.95
2019-03-29T23:39:08.756Z,9.29
2019-03-29T23:41:37.333Z,9.58
2019-03-29T23:44:05.937Z,9.82
2019-03-29T23:46:34.516Z,9.92
2019-03-29T23:49:03.225Z,9.88
2019-03-29T23:51:31.799Z,9.76
2019-03-29T23:54:00.582Z,9.91
2019-03-29T23:56:29.197Z,9.60
2019-03-29T23:58:57.748Z,9.22
